Time;durP1;ratioP1;P1;durP2;ratioP2;P2;SDS_P1;SDS_P2;PMS_P1;PMS_P2;Temp;Humidity;BMP_temperature;BMP_pressure;BME280_temperature;BME280_humidity;BME280_pressure;Samples;Min_cycle;Max_cycle;Signal;HPM_P1;HPM_P2
2021/12/21 00:00:14;;;;;;;17.30;8.05;;;28.40;85.70;;;;;;5066657;28;20205;-52
2021/12/21 00:02:43;;;;;;;20.45;7.65;;;28.50;85.80;;;;;;5066431;28;20205;-47
2021/12/21 00:05:16;;;;;;;16.42;7.40;;;28.40;85.70;;;;;;5066563;28;20139;-51
2021/12/21 00:07:44;;;;;;;11.38;6.95;;;28.50;85.80;;;;;;5066284;28;20028;-48
2021/12/21 00:10:11;;;;;;;13.27;6.60;;;28.40;85.70;;;;;;5066478;28;20028;-50
2021/12/21 00:12:47;;;;;;;11.23;6.97;;;28.40;85.70;;;;;;5066115;28;20321;-51
2021/12/21 00:15:24;;;;;;;14.05;7.45;;;28.40;85.70;;;;;;5066084;28;20029;-53
2021/12/21 00:18:03;;;;;;;13.98;6.70;;;28.40;85.80;;;;;;5065815;28;20328;-52
2021/12/21 00:20:33;;;;;;;12.90;6.90;;;28.40;85.80;;;;;;5066420;28;20320;-49
2021/12/21 00:25:35;;;;;;;10.88;6.38;;;28.40;86.00;;;;;;5066390;28;20088;-52
2021/12/21 00:28:02;;;;;;;12.90;6.78;;;28.40;86.00;;;;;;5065932;28;20036;-51
2021/12/21 00:30:29;;;;;;;11.23;6.47;;;28.40;86.00;;;;;;5064773;28;20071;-55
2021/12/21 00:32:56;;;;;;;12.43;6.88;;;28.40;86.10;;;;;;5065871;28;20025;-47
2021/12/21 00:35:22;;;;;;;16.25;7.32;;;28.40;86.10;;;;;;5066186;28;20029;-49
2021/12/21 00:37:49;;;;;;;20.67;7.78;;;28.40;86.10;;;;;;5065504;28;20335;-47
2021/12/21 00:40:16;;;;;;;12.82;7.13;;;28.40;86.10;;;;;;5065711;28;20037;-44
2021/12/21 00:42:42;;;;;;;16.67;6.53;;;28.40;86.20;;;;;;5065400;28;20016;-44
2021/12/21 00:45:09;;;;;;;16.13;6.30;;;28.30;86.10;;;;;;5065796;28;20357;-47
2021/12/21 00:47:40;;;;;;;14.73;6.88;;;28.40;86.20;;;;;;5065454;28;20028;-49
2021/12/21 00:50:16;;;;;;;16.40;6.72;;;28.40;86.20;;;;;;5065558;28;20313;-42
2021/12/21 00:52:43;;;;;;;12.95;7.30;;;28.40;86.30;;;;;;5065197;28;20021;-49
2021/12/21 00:55:10;;;;;;;11.70;6.50;;;28.30;86.20;;;;;;5065541;28;20028;-44
2021/12/21 00:57:37;;;;;;;13.25;6.20;;;28.30;86.20;;;;;;5065311;28;20031;-47
2021/12/21 01:00:06;;;;;;;14.40;6.22;;;28.30;86.20;;;;;;5065129;28;20084;-46
2021/12/21 01:02:33;;;;;;;13.10;6.85;;;28.30;86.20;;;;;;5065247;28;20085;-48
2021/12/21 01:05:00;;;;;;;15.18;6.40;;;28.30;86.10;;;;;;5065404;28;20025;-49
2021/12/21 01:07:36;;;;;;;13.27;7.18;;;28.30;86.10;;;;;;5065045;28;20025;-49
2021/12/21 01:10:45;;;;;;;11.80;6.10;;;28.30;86.00;;;;;;5065340;28;20303;-52
2021/12/21 01:13:13;;;;;;;12.00;6.75;;;28.30;86.00;;;;;;5064989;28;20028;-50
2021/12/21 01:18:16;;;;;;;13.20;6.38;;;28.30;86.00;;;;;;5064696;28;20071;-47
2021/12/21 01:21:02;;;;;;;12.13;6.63;;;28.30;86.00;;;;;;5065326;28;20021;-47
2021/12/21 01:26:10;;;;;;;19.65;9.70;;;28.30;86.00;;;;;;5065259;28;20023;-50
2021/12/21 01:31:27;;;;;;;12.90;8.23;;;28.30;86.00;;;;;;5065190;28;20029;-48
2021/12/21 01:36:50;;;;;;;13.95;7.28;;;28.20;85.90;;;;;;5064693;28;20024;-49
2021/12/21 01:39:51;;;;;;;11.20;7.20;;;28.20;85.90;;;;;;5064573;28;20067;-42
2021/12/21 01:50:32;;;;;;;12.10;6.60;;;28.20;85.70;;;;;;5022660;28;20361;-45
2021/12/21 01:52:58;;;;;;;13.20;6.55;;;28.20;85.60;;;;;;5039120;28;20041;-49
2021/12/21 01:55:25;;;;;;;11.75;6.45;;;28.20;85.50;;;;;;5063752;28;20036;-47
2021/12/21 01:57:52;;;;;;;11.30;5.97;;;28.20;85.50;;;;;;5064077;28;20331;-48
2021/12/21 02:00:19;;;;;;;9.82;6.05;;;28.20;85.40;;;;;;5064212;28;20029;-48
2021/12/21 02:02:45;;;;;;;10.18;5.85;;;28.20;85.40;;;;;;5064072;28;20182;-48
2021/12/21 02:05:12;;;;;;;13.23;6.32;;;28.20;85.30;;;;;;5064148;28;20052;-48
2021/12/21 02:07:39;;;;;;;11.23;5.95;;;28.20;85.80;;;;;;5063586;28;20321;-44
2021/12/21 02:10:07;;;;;;;10.38;5.95;;;28.20;85.20;;;;;;5064303;28;20040;-45
2021/12/21 02:12:34;;;;;;;11.85;6.55;;;28.20;85.20;;;;;;5063420;28;20194;-45
2021/12/21 02:15:02;;;;;;;8.15;5.50;;;28.20;85.10;;;;;;5063460;28;20033;-43
2021/12/21 02:18:08;;;;;;;10.93;5.50;;;28.20;85.00;;;;;;5063787;28;20026;-46
2021/12/21 02:30:44;;;;;;;9.30;5.20;;;28.30;84.80;;;;;;5064097;28;20070;-50
2021/12/21 02:33:13;;;;;;;8.75;6.10;;;28.30;84.80;;;;;;5063765;28;20021;-41
2021/12/21 02:35:41;;;;;;;10.25;5.63;;;28.30;84.80;;;;;;5064025;28;20029;-54
2021/12/21 02:38:08;;;;;;;10.10;5.50;;;28.30;84.80;;;;;;5063703;28;20028;-43
2021/12/21 02:40:36;;;;;;;10.23;5.20;;;28.30;84.80;;;;;;5064077;28;20323;-48
2021/12/21 02:43:04;;;;;;;12.18;5.43;;;28.30;84.80;;;;;;5063631;28;20070;-47
2021/12/21 02:45:30;;;;;;;6.65;5.22;;;28.30;84.80;;;;;;5063646;28;20372;-48
2021/12/21 02:47:57;;;;;;;8.57;5.28;;;28.30;84.80;;;;;;5063665;28;20213;-49
2021/12/21 02:50:25;;;;;;;6.80;5.10;;;28.30;84.70;;;;;;5063917;28;20036;-49
2021/12/21 02:52:51;;;;;;;9.27;5.80;;;28.30;84.60;;;;;;5063573;28;20083;-41
2021/12/21 02:55:18;;;;;;;9.68;6.43;;;28.30;84.60;;;;;;5063953;28;20021;-52
2021/12/21 02:57:45;;;;;;;11.73;5.72;;;28.30;84.50;;;;;;5063513;28;20017;-48
2021/12/21 03:00:12;;;;;;;9.07;5.93;;;28.30;84.50;;;;;;5063748;28;20032;-47
2021/12/21 03:02:39;;;;;;;7.03;5.43;;;28.30;84.50;;;;;;5063696;28;20302;-50
2021/12/21 03:05:06;;;;;;;10.98;5.43;;;28.30;84.50;;;;;;5063689;28;20033;-43
2021/12/21 03:10:46;;;;;;;7.80;5.25;;;28.30;84.40;;;;;;5025776;28;20057;-52
2021/12/21 03:15:59;;;;;;;7.93;5.75;;;28.30;84.30;;;;;;5053492;28;20044;-45
2021/12/21 03:18:26;;;;;;;8.00;5.03;;;28.20;84.30;;;;;;5067275;28;20070;-47
2021/12/21 03:20:52;;;;;;;10.35;5.78;;;28.30;84.30;;;;;;5067633;28;20057;-42
2021/12/21 03:23:19;;;;;;;9.45;5.20;;;28.30;84.30;;;;;;5067134;28;20013;-49
2021/12/21 03:25:45;;;;;;;7.32;5.40;;;28.30;84.30;;;;;;5067598;28;20067;-48
2021/12/21 03:28:12;;;;;;;7.45;5.22;;;28.30;84.30;;;;;;5066911;28;20045;-48
2021/12/21 03:30:38;;;;;;;7.57;4.82;;;28.30;84.20;;;;;;5066912;28;20040;-46
2021/12/21 03:33:05;;;;;;;8.63;5.40;;;28.30;84.20;;;;;;5067034;28;20024;-49
2021/12/21 03:35:32;;;;;;;6.53;5.28;;;28.30;84.20;;;;;;5065902;28;20092;-43
2021/12/21 03:37:58;;;;;;;8.73;5.18;;;28.30;84.70;;;;;;5065058;28;20382;-48
2021/12/21 03:40:28;;;;;;;8.73;5.18;;;28.30;84.20;;;;;;5065134;28;20084;-46
2021/12/21 03:42:54;;;;;;;8.43;4.72;;;28.30;84.10;;;;;;5065283;28;20209;-49
2021/12/21 03:45:21;;;;;;;7.65;5.13;;;28.30;84.10;;;;;;5065255;28;20017;-45
2021/12/21 03:47:48;;;;;;;8.23;5.00;;;28.30;84.10;;;;;;5065018;28;20021;-47
2021/12/21 03:50:19;;;;;;;7.28;5.07;;;28.30;84.00;;;;;;5065256;28;20178;-48
2021/12/21 03:52:45;;;;;;;7.97;5.00;;;28.20;84.00;;;;;;5063802;28;20094;-49
2021/12/21 03:55:13;;;;;;;8.40;5.35;;;28.20;83.90;;;;;;5066586;28;20035;-50
2021/12/21 03:57:39;;;;;;;7.60;4.80;;;28.20;83.90;;;;;;5066617;28;20032;-45
2021/12/21 04:00:11;;;;;;;7.38;4.60;;;28.20;83.90;;;;;;5066687;28;20198;-51
2021/12/21 04:02:38;;;;;;;11.10;5.22;;;28.20;83.90;;;;;;5059022;28;20036;-48
2021/12/21 04:05:05;;;;;;;15.68;4.90;;;28.20;83.90;;;;;;5059232;28;20025;-47
2021/12/21 04:07:32;;;;;;;7.82;4.60;;;28.20;83.90;;;;;;5066015;28;20020;-45
2021/12/21 04:10:00;;;;;;;5.68;4.63;;;28.20;83.90;;;;;;5066431;28;20028;-49
2021/12/21 04:12:27;;;;;;;6.57;4.68;;;28.20;83.80;;;;;;5066093;28;20248;-48
2021/12/21 04:14:56;;;;;;;7.10;4.57;;;28.20;83.90;;;;;;5066003;28;20100;-46
2021/12/21 04:17:24;;;;;;;9.48;5.18;;;28.20;83.90;;;;;;5065640;28;20020;-45
2021/12/21 04:19:51;;;;;;;7.10;5.00;;;28.20;83.90;;;;;;5065472;28;20032;-48
2021/12/21 04:22:19;;;;;;;9.02;4.70;;;28.20;83.80;;;;;;5066026;28;20017;-44
2021/12/21 04:24:45;;;;;;;10.10;5.40;;;28.20;83.70;;;;;;5062736;28;20024;-43
2021/12/21 04:27:12;;;;;;;9.45;4.68;;;28.10;83.60;;;;;;5064371;28;20317;-48
2021/12/21 04:29:38;;;;;;;9.20;4.70;;;28.10;83.60;;;;;;5059351;28;20044;-47
2021/12/21 04:32:05;;;;;;;8.50;4.57;;;28.10;83.60;;;;;;5056146;28;20303;-49
2021/12/21 04:34:33;;;;;;;15.60;5.13;;;28.10;83.60;;;;;;5063030;28;20032;-49
2021/12/21 04:37:00;;;;;;;8.55;4.50;;;28.10;83.60;;;;;;5065583;28;20027;-52
2021/12/21 04:41:53;;;;;;;6.00;4.80;;;28.00;83.70;;;;;;5064021;28;20024;-45
2021/12/21 04:44:19;;;;;;;8.52;5.50;;;28.00;83.70;;;;;;5064964;28;20040;-46
2021/12/21 04:46:46;;;;;;;9.38;4.95;;;28.00;83.70;;;;;;5065750;28;20028;-48
2021/12/21 04:49:13;;;;;;;8.73;4.45;;;28.00;83.80;;;;;;5065620;28;20025;-45
2021/12/21 04:51:39;;;;;;;10.02;4.70;;;27.90;83.80;;;;;;5065021;28;20135;-50
2021/12/21 04:54:06;;;;;;;8.73;5.03;;;27.90;83.80;;;;;;5065215;28;20017;-50
2021/12/21 04:56:32;;;;;;;10.02;4.60;;;27.90;83.70;;;;;;5065234;28;20209;-46
2021/12/21 04:58:59;;;;;;;9.48;5.20;;;27.90;83.80;;;;;;5064235;28;20065;-49
2021/12/21 05:01:26;;;;;;;8.18;4.68;;;27.90;83.80;;;;;;5064980;28;20021;-50
2021/12/21 05:03:52;;;;;;;7.07;4.72;;;27.80;83.70;;;;;;5064852;28;20393;-42
2021/12/21 05:06:19;;;;;;;9.52;5.32;;;27.90;83.70;;;;;;5064401;28;20009;-42
2021/12/21 05:08:53;;;;;;;7.13;5.25;;;27.90;83.60;;;;;;5063497;28;20032;-48
2021/12/21 05:11:21;;;;;;;10.15;5.07;;;27.80;83.30;;;;;;5063399;28;20164;-48
2021/12/21 05:13:47;;;;;;;8.50;5.15;;;27.90;83.90;;;;;;5063173;28;20213;-51
2021/12/21 05:16:14;;;;;;;10.98;5.60;;;27.80;83.30;;;;;;5063394;28;20029;-50
2021/12/21 05:18:41;;;;;;;8.70;5.03;;;27.80;83.30;;;;;;5063888;28;20040;-47
2021/12/21 05:21:07;;;;;;;7.95;4.97;;;27.80;83.40;;;;;;5063728;28;20383;-46
2021/12/21 05:23:34;;;;;;;10.25;4.65;;;27.80;83.50;;;;;;5064858;28;20020;-49
2021/12/21 05:26:00;;;;;;;7.20;4.72;;;27.80;83.50;;;;;;5065309;28;20088;-42
2021/12/21 05:28:27;;;;;;;6.82;4.68;;;27.80;83.50;;;;;;5064542;28;20078;-46
2021/12/21 05:30:53;;;;;;;9.30;5.30;;;27.80;83.40;;;;;;5065160;28;20086;-51
2021/12/21 05:33:20;;;;;;;9.02;5.07;;;27.80;83.40;;;;;;5064746;28;20032;-46
2021/12/21 05:35:48;;;;;;;9.18;4.90;;;27.70;83.20;;;;;;5056019;28;20029;-48
2021/12/21 05:38:19;;;;;;;11.27;5.03;;;27.70;83.10;;;;;;5044556;28;20036;-42
2021/12/21 05:40:46;;;;;;;6.90;5.00;;;27.70;83.00;;;;;;5045062;28;20312;-50
2021/12/21 05:43:14;;;;;;;9.77;4.72;;;27.70;83.00;;;;;;5044462;28;20092;-44
2021/12/21 05:45:41;;;;;;;6.03;4.90;;;27.70;82.90;;;;;;5044889;28;20075;-52
2021/12/21 05:48:08;;;;;;;6.72;4.68;;;27.70;82.80;;;;;;5044480;28;20025;-44
2021/12/21 05:50:35;;;;;;;10.70;4.78;;;27.70;82.70;;;;;;5044693;28;20025;-44
2021/12/21 05:53:02;;;;;;;8.48;4.70;;;27.70;82.70;;;;;;5044445;28;20040;-51
2021/12/21 05:55:29;;;;;;;8.13;4.65;;;27.70;83.20;;;;;;5044680;28;20030;-50
2021/12/21 05:57:56;;;;;;;7.70;4.50;;;27.70;82.70;;;;;;5044169;28;20030;-51
2021/12/21 06:00:26;;;;;;;8.27;4.53;;;27.70;82.60;;;;;;5044253;28;20206;-46
2021/12/21 06:02:53;;;;;;;6.82;4.80;;;27.70;82.50;;;;;;5044385;28;20329;-49
2021/12/21 06:05:20;;;;;;;6.40;4.43;;;27.70;82.40;;;;;;5044452;28;20208;-47
2021/12/21 06:07:49;;;;;;;8.70;4.68;;;27.70;82.30;;;;;;5051239;28;20317;-46
2021/12/21 06:10:23;;;;;;;6.85;4.90;;;27.60;82.30;;;;;;5063720;28;20369;-46
2021/12/21 06:24:06;;;;;;;8.50;4.70;;;27.60;82.10;;;;;;5044121;28;20013;-43
2021/12/21 06:26:23;;;;;;;8.38;4.82;;;27.60;82.00;;;;;;5043756;28;20021;-45
2021/12/21 06:28:50;;;;;;;9.00;4.70;;;27.50;81.90;;;;;;5043852;28;20045;-44
2021/12/21 06:31:17;;;;;;;8.35;5.03;;;27.50;81.90;;;;;;5043928;28;20034;-52
2021/12/21 06:33:44;;;;;;;10.82;4.40;;;27.50;81.90;;;;;;5043785;28;20043;-48
2021/12/21 06:36:11;;;;;;;6.60;4.57;;;27.50;82.00;;;;;;5056478;28;20031;-49
2021/12/21 06:38:38;;;;;;;10.85;5.15;;;27.50;81.90;;;;;;5063730;28;20032;-50
2021/12/21 06:41:04;;;;;;;7.03;4.68;;;27.50;82.00;;;;;;5063586;28;20021;-44
2021/12/21 06:43:32;;;;;;;6.75;4.82;;;27.50;82.10;;;;;;5063652;28;20028;-50
2021/12/21 06:53:47;;;;;;;12.13;5.30;;;27.40;82.50;;;;;;5063541;28;20067;-45
2021/12/21 06:56:15;;;;;;;9.80;4.80;;;27.40;82.60;;;;;;5064002;28;20032;-48
2021/12/21 06:58:41;;;;;;;7.72;4.68;;;27.40;82.70;;;;;;5063585;28;20025;-49
2021/12/21 07:01:08;;;;;;;8.95;5.03;;;27.40;82.90;;;;;;5063946;28;20058;-45
2021/12/21 07:03:35;;;;;;;8.93;5.32;;;27.30;82.90;;;;;;5063651;28;20025;-49
2021/12/21 07:06:04;;;;;;;9.20;5.22;;;27.40;83.10;;;;;;5063790;28;20021;-46
2021/12/21 07:08:35;;;;;;;8.68;5.00;;;27.30;83.10;;;;;;5063356;28;20029;-52
2021/12/21 07:11:15;;;;;;;11.90;5.40;;;27.30;83.30;;;;;;5063901;28;20021;-44
2021/12/21 07:19:12;;;;;;;8.45;4.53;;;27.30;83.50;;;;;;5063376;28;20032;-51
2021/12/21 07:21:39;;;;;;;8.88;5.50;;;27.30;83.50;;;;;;5063414;28;20017;-49
2021/12/21 07:24:06;;;;;;;9.70;5.00;;;27.30;83.40;;;;;;5063252;28;20021;-49
2021/12/21 07:26:33;;;;;;;9.18;4.90;;;27.20;83.40;;;;;;5063332;28;20205;-50
2021/12/21 07:29:00;;;;;;;7.43;4.80;;;27.30;83.40;;;;;;5063088;28;20036;-50
2021/12/21 07:31:27;;;;;;;7.70;5.03;;;27.20;83.40;;;;;;5063213;28;20062;-46
2021/12/21 07:33:53;;;;;;;8.80;5.03;;;27.20;83.40;;;;;;5063132;28;20024;-51
2021/12/21 07:36:20;;;;;;;6.18;4.50;;;27.20;83.20;;;;;;5063271;28;20317;-55
2021/12/21 07:38:46;;;;;;;8.07;4.95;;;27.20;83.10;;;;;;5063159;28;20036;-55
2021/12/21 07:41:13;;;;;;;5.97;4.70;;;27.20;83.00;;;;;;5063631;28;20033;-49
2021/12/21 07:43:39;;;;;;;8.30;4.70;;;27.20;82.80;;;;;;5063204;28;20040;-51
2021/12/21 07:46:06;;;;;;;7.43;4.70;;;27.20;82.80;;;;;;5063698;28;20080;-45
2021/12/21 07:48:33;;;;;;;8.98;5.00;;;27.20;82.70;;;;;;5062936;28;20096;-47
2021/12/21 07:51:00;;;;;;;9.80;5.10;;;27.20;82.60;;;;;;5063567;28;20029;-51
2021/12/21 07:53:27;;;;;;;9.13;5.07;;;27.20;82.50;;;;;;5063883;28;20071;-53
2021/12/21 07:55:53;;;;;;;7.43;4.65;;;27.20;82.50;;;;;;5067005;28;20031;-47
2021/12/21 07:58:20;;;;;;;7.25;5.13;;;27.20;82.40;;;;;;5066789;28;20313;-46
2021/12/21 08:00:47;;;;;;;6.22;4.32;;;27.20;82.30;;;;;;5066952;28;20029;-45
2021/12/21 08:03:15;;;;;;;8.75;4.93;;;27.20;82.20;;;;;;5066259;28;20206;-46
2021/12/21 08:05:44;;;;;;;8.75;4.70;;;27.20;82.10;;;;;;5066799;28;20056;-46
2021/12/21 08:08:16;;;;;;;9.88;5.00;;;27.20;82.10;;;;;;5066411;28;20243;-49
2021/12/21 08:10:46;;;;;;;9.48;4.88;;;27.20;82.00;;;;;;5066688;28;20048;-47
2021/12/21 08:13:13;;;;;;;9.07;4.60;;;27.10;81.90;;;;;;5066380;28;20267;-49
2021/12/21 08:15:40;;;;;;;8.00;4.95;;;27.20;82.00;;;;;;5066466;28;20024;-47
2021/12/21 08:18:07;;;;;;;7.35;4.72;;;27.10;82.00;;;;;;5066062;28;20074;-49
2021/12/21 08:20:35;;;;;;;7.20;4.75;;;27.10;82.10;;;;;;5066491;28;20077;-55
2021/12/21 08:23:02;;;;;;;8.98;4.80;;;27.20;82.10;;;;;;5065963;28;20025;-50
2021/12/21 08:25:29;;;;;;;11.32;4.47;;;27.10;82.00;;;;;;5066443;28;20024;-50
2021/12/21 08:27:58;;;;;;;6.13;4.28;;;27.10;81.90;;;;;;5065938;28;20025;-48
2021/12/21 08:30:25;;;;;;;5.30;4.35;;;27.10;81.80;;;;;;5066171;28;20037;-46
2021/12/21 08:32:53;;;;;;;7.13;4.40;;;27.10;81.80;;;;;;5065974;28;20017;-46
2021/12/21 08:35:20;;;;;;;6.68;3.70;;;27.10;81.60;;;;;;5066155;28;20099;-44
2021/12/21 08:37:52;;;;;;;6.35;4.03;;;27.20;81.60;;;;;;5065630;28;20337;-43
2021/12/21 08:40:23;;;;;;;7.10;4.07;;;27.20;81.30;;;;;;5066049;28;20029;-48
2021/12/21 08:42:51;;;;;;;5.57;4.20;;;27.10;80.90;;;;;;5065818;28;20333;-48
2021/12/21 08:45:18;;;;;;;5.55;3.83;;;27.20;80.90;;;;;;5065814;28;20052;-47
2021/12/21 08:47:45;;;;;;;5.63;4.10;;;27.10;80.70;;;;;;5065708;28;20028;-47
2021/12/21 08:50:13;;;;;;;4.30;3.72;;;27.10;80.70;;;;;;5065918;28;20029;-45
2021/12/21 08:52:41;;;;;;;7.53;4.22;;;27.20;80.60;;;;;;5065398;28;20021;-56
2021/12/21 08:55:10;;;;;;;7.32;4.20;;;27.10;80.30;;;;;;5047823;28;20272;-47
2021/12/21 08:57:37;;;;;;;6.20;3.72;;;27.10;80.20;;;;;;5065387;28;20029;-46
2021/12/21 09:00:08;;;;;;;6.07;4.28;;;27.10;80.20;;;;;;5065478;28;20266;-47
2021/12/21 09:02:37;;;;;;;6.40;4.03;;;27.20;80.20;;;;;;5065489;28;20015;-49
2021/12/21 09:05:16;;;;;;;7.68;3.58;;;27.20;80.10;;;;;;5065064;28;20036;-40
2021/12/21 09:07:44;;;;;;;6.47;3.90;;;27.20;80.30;;;;;;5065255;28;20031;-47
2021/12/21 09:10:13;;;;;;;7.82;3.53;;;27.10;80.20;;;;;;5065486;28;20032;-47
2021/12/21 09:12:39;;;;;;;4.60;3.67;;;27.10;80.20;;;;;;5065128;28;20367;-52
2021/12/21 09:15:08;;;;;;;6.82;4.22;;;27.00;80.30;;;;;;5065113;28;20029;-50
2021/12/21 09:17:35;;;;;;;8.20;4.20;;;27.10;80.40;;;;;;5065068;28;20058;-49
2021/12/21 09:20:04;;;;;;;6.75;4.00;;;27.00;80.30;;;;;;5065096;28;20035;-49
2021/12/21 09:22:31;;;;;;;10.88;4.13;;;27.00;80.40;;;;;;5064973;28;20084;-51
2021/12/21 09:24:58;;;;;;;4.90;3.65;;;27.10;80.40;;;;;;5065288;28;20021;-48
2021/12/21 09:27:26;;;;;;;5.20;4.32;;;27.10;80.40;;;;;;5064762;28;20194;-50
2021/12/21 09:29:54;;;;;;;5.57;3.67;;;27.10;80.30;;;;;;5064971;28;20043;-50
2021/12/21 09:32:20;;;;;;;7.35;4.00;;;27.00;80.20;;;;;;5064355;28;20095;-49
2021/12/21 09:34:47;;;;;;;6.18;4.13;;;27.10;80.40;;;;;;5061929;28;20025;-50
2021/12/21 09:37:18;;;;;;;7.57;4.15;;;27.10;80.40;;;;;;5064633;28;20025;-50
2021/12/21 09:39:50;;;;;;;7.57;4.20;;;27.00;80.40;;;;;;5064851;28;20285;-48
2021/12/21 09:42:20;;;;;;;6.32;4.53;;;27.10;80.70;;;;;;5064975;28;20020;-50
2021/12/21 09:44:47;;;;;;;5.18;4.15;;;27.10;80.70;;;;;;5064772;28;20021;-50
2021/12/21 09:47:15;;;;;;;6.82;4.38;;;27.10;80.90;;;;;;5064409;28;20100;-55
2021/12/21 09:49:44;;;;;;;10.98;4.38;;;27.10;81.10;;;;;;5064682;28;20028;-49
2021/12/21 09:52:12;;;;;;;6.95;4.20;;;27.00;81.10;;;;;;5064473;28;20208;-49
2021/12/21 09:54:40;;;;;;;7.68;4.38;;;27.10;81.30;;;;;;5064488;28;20040;-51
2021/12/21 09:57:08;;;;;;;8.10;4.30;;;27.00;81.30;;;;;;5064342;28;20027;-47
2021/12/21 09:59:35;;;;;;;6.78;4.47;;;27.10;81.40;;;;;;5064297;28;20035;-47
2021/12/21 10:02:03;;;;;;;7.40;4.43;;;27.00;81.50;;;;;;5064190;28;20017;-46
2021/12/21 10:04:30;;;;;;;8.18;4.47;;;27.10;81.70;;;;;;5064353;28;20305;-44
2021/12/21 10:07:00;;;;;;;9.00;4.97;;;27.00;81.70;;;;;;5064233;28;20017;-48
2021/12/21 10:09:34;;;;;;;9.73;4.53;;;27.00;81.80;;;;;;5064331;28;20029;-46
2021/12/21 10:12:01;;;;;;;9.77;4.60;;;27.00;81.80;;;;;;5064133;28;20078;-46
2021/12/21 10:14:27;;;;;;;7.28;4.50;;;27.00;81.80;;;;;;5064187;28;20170;-46
2021/12/21 10:17:06;;;;;;;8.45;4.70;;;27.00;82.00;;;;;;5063147;28;20329;-47
2021/12/21 10:19:34;;;;;;;8.38;4.70;;;27.00;82.00;;;;;;5064089;28;20029;-46
2021/12/21 10:22:14;;;;;;;9.30;4.90;;;27.00;82.00;;;;;;5063867;28;20059;-48
2021/12/21 10:24:48;;;;;;;12.57;5.18;;;27.00;82.10;;;;;;5064297;28;20232;-46
2021/12/21 10:27:15;;;;;;;7.65;4.35;;;26.90;82.00;;;;;;5063858;28;20227;-49
2021/12/21 10:29:57;;;;;;;9.32;5.35;;;26.90;82.00;;;;;;5063923;28;20060;-52
2021/12/21 10:32:27;;;;;;;10.80;4.57;;;26.90;82.00;;;;;;5064014;28;20036;-50
2021/12/21 10:34:57;;;;;;;8.85;4.53;;;26.90;82.00;;;;;;5063996;28;20355;-46
2021/12/21 10:37:27;;;;;;;8.15;4.55;;;26.90;82.00;;;;;;5063702;28;20028;-51
2021/12/21 10:40:26;;;;;;;8.20;4.00;;;26.90;81.90;;;;;;5063800;28;20036;-51
2021/12/21 10:42:57;;;;;;;10.30;4.25;;;26.90;81.80;;;;;;5063701;28;20017;-49
2021/12/21 10:45:43;;;;;;;10.20;4.13;;;26.90;81.70;;;;;;5064013;28;20025;-52
2021/12/21 10:48:16;;;;;;;6.20;4.35;;;26.90;81.50;;;;;;5063670;28;20028;-49
2021/12/21 10:50:47;;;;;;;11.27;4.35;;;26.90;81.50;;;;;;5063978;28;20041;-51
2021/12/21 10:53:20;;;;;;;9.23;4.15;;;26.90;81.50;;;;;;5063661;28;20209;-50
2021/12/21 10:55:58;;;;;;;9.13;4.22;;;26.90;81.50;;;;;;5063876;28;20040;-50
2021/12/21 10:58:28;;;;;;;8.60;4.45;;;26.90;81.50;;;;;;5063523;28;20025;-53
2021/12/21 11:00:59;;;;;;;8.15;5.15;;;26.90;81.50;;;;;;5063797;28;20025;-53
2021/12/21 11:03:45;;;;;;;10.88;6.85;;;26.90;81.60;;;;;;5063110;28;20070;-48
2021/12/21 11:06:17;;;;;;;14.02;9.75;;;26.90;81.70;;;;;;5063895;28;20033;-48
2021/12/21 11:08:45;;;;;;;;;;;26.90;81.80;;;;;;5064039;28;20025;-51
2021/12/21 11:11:29;;;;;;;14.20;8.38;;;26.80;81.70;;;;;;5064015;28;19912;-51
2021/12/21 11:14:15;;;;;;;13.30;7.72;;;26.80;81.80;;;;;;5063324;28;20025;-51
2021/12/21 11:16:51;;;;;;;11.40;7.40;;;26.80;81.80;;;;;;5063250;28;20209;-51
2021/12/21 11:19:21;;;;;;;10.70;7.00;;;26.80;81.90;;;;;;5063481;28;20092;-46
2021/12/21 11:21:48;;;;;;;8.25;5.95;;;26.80;82.00;;;;;;5063407;28;20025;-49
2021/12/21 11:24:19;;;;;;;8.43;6.20;;;26.80;82.00;;;;;;5063488;28;20017;-54
2021/12/21 11:26:48;;;;;;;9.55;6.20;;;26.80;82.10;;;;;;5063422;28;20013;-51
2021/12/21 11:29:18;;;;;;;9.55;5.60;;;26.90;82.20;;;;;;5067075;28;20056;-53
2021/12/21 11:31:51;;;;;;;9.18;5.57;;;26.90;82.30;;;;;;5067176;28;20321;-54
2021/12/21 11:34:21;;;;;;;8.63;5.38;;;26.90;82.40;;;;;;5067147;28;20033;-51
2021/12/21 11:39:39;;;;;;;8.85;5.65;;;26.90;82.50;;;;;;5067142;28;20110;-52
2021/12/21 11:42:09;;;;;;;10.10;5.78;;;26.90;82.80;;;;;;5066808;28;20017;-48
2021/12/21 11:44:48;;;;;;;8.27;5.40;;;26.80;82.80;;;;;;5066917;28;20025;-43
2021/12/21 11:47:18;;;;;;;9.48;5.35;;;26.90;82.80;;;;;;5066694;28;20017;-51
2021/12/21 11:49:51;;;;;;;19.48;6.18;;;26.90;83.00;;;;;;5066440;28;20032;-43
2021/12/21 11:52:21;;;;;;;14.85;5.53;;;26.90;82.90;;;;;;5066686;28;20020;-52
2021/12/21 11:54:58;;;;;;;15.50;5.35;;;26.90;83.60;;;;;;5066708;28;20025;-47
2021/12/21 11:57:43;;;;;;;16.58;5.70;;;26.90;83.10;;;;;;5066659;28;20021;-51
2021/12/21 12:00:25;;;;;;;12.00;4.70;;;26.90;83.20;;;;;;5066824;28;20037;-49
2021/12/21 12:02:54;;;;;;;9.50;5.03;;;26.90;83.30;;;;;;5066576;28;20017;-44
2021/12/21 12:05:31;;;;;;;12.95;5.85;;;26.90;83.40;;;;;;5066607;28;20298;-49
2021/12/21 12:08:08;;;;;;;14.30;5.00;;;26.90;83.40;;;;;;5065933;28;20332;-52
2021/12/21 12:10:38;;;;;;;9.10;4.85;;;26.90;83.60;;;;;;5055999;28;20084;-51
2021/12/21 12:13:14;;;;;;;15.15;5.65;;;27.00;83.70;;;;;;5066347;28;20021;-53
2021/12/21 12:15:47;;;;;;;12.38;5.20;;;26.90;83.70;;;;;;5066585;28;20360;-49
2021/12/21 12:18:20;;;;;;;;;;;27.00;84.00;;;;;;5065954;28;20029;-48
2021/12/21 12:20:46;;;;;;;11.57;4.88;;;27.00;84.00;;;;;;5066720;28;19909;-52
2021/12/21 12:23:13;;;;;;;10.88;4.90;;;27.00;84.10;;;;;;5066081;28;20013;-46
2021/12/21 12:25:50;;;;;;;8.50;5.30;;;26.90;84.00;;;;;;5066500;28;20025;-49
2021/12/21 12:28:33;;;;;;;11.02;4.82;;;27.00;84.10;;;;;;5065875;28;20048;-48
2021/12/21 12:31:01;;;;;;;14.75;5.18;;;27.00;84.20;;;;;;5065945;28;20033;-49
2021/12/21 12:33:39;;;;;;;11.52;5.22;;;27.00;84.20;;;;;;5066063;28;20362;-48
2021/12/21 12:36:06;;;;;;;11.50;5.03;;;27.00;84.40;;;;;;5066402;28;20187;-49
2021/12/21 12:38:43;;;;;;;10.73;4.32;;;27.00;84.80;;;;;;5064888;28;20263;-49
2021/12/21 12:41:13;;;;;;;10.48;4.63;;;27.00;84.50;;;;;;5064576;28;20025;-51
2021/12/21 12:43:44;;;;;;;10.27;4.78;;;27.00;84.60;;;;;;5063808;28;20098;-45
2021/12/21 12:46:21;;;;;;;8.37;4.23;;;27.10;84.90;;;;;;5064296;28;20123;-45
2021/12/21 12:48:48;;;;;;;8.95;5.13;;;27.00;84.90;;;;;;5065753;28;20036;-54
2021/12/21 12:51:34;;;;;;;9.10;4.38;;;27.00;84.60;;;;;;5064445;28;20369;-47
2021/12/21 12:54:12;;;;;;;11.13;4.82;;;27.10;84.80;;;;;;5054205;28;20021;-42
2021/12/21 12:56:40;;;;;;;11.90;4.85;;;27.10;84.70;;;;;;5046058;28;20084;-51
2021/12/21 12:59:08;;;;;;;11.23;4.88;;;27.10;84.60;;;;;;5063150;28;20032;-50
2021/12/21 13:01:44;;;;;;;9.27;4.45;;;27.10;84.70;;;;;;5058954;28;20027;-49
2021/12/21 13:04:13;;;;;;;8.07;4.90;;;27.20;84.70;;;;;;5062742;28;20033;-47
2021/12/21 13:06:41;;;;;;;10.32;4.80;;;27.20;84.80;;;;;;5065331;28;20363;-54
2021/12/21 13:09:12;;;;;;;8.32;4.40;;;27.20;84.70;;;;;;5065335;28;20217;-45
2021/12/21 13:11:43;;;;;;;8.90;4.43;;;27.20;84.70;;;;;;5065108;28;20024;-44
2021/12/21 13:14:11;;;;;;;7.05;4.40;;;27.20;84.80;;;;;;5065110;28;20017;-45
2021/12/21 13:16:39;;;;;;;7.40;4.38;;;27.30;84.80;;;;;;5065135;28;20090;-47
2021/12/21 13:19:09;;;;;;;10.18;4.72;;;27.30;84.80;;;;;;5063935;28;20119;-50
2021/12/21 13:22:01;;;;;;;6.78;4.32;;;27.30;84.80;;;;;;5056530;28;20029;-53
2021/12/21 13:24:33;;;;;;;;;;;27.30;84.80;;;;;;5045569;28;20305;-42
2021/12/21 13:27:07;;;;;;;7.30;4.20;;;27.30;85.00;;;;;;5044979;28;19900;-44
2021/12/21 13:29:35;;;;;;;6.22;4.80;;;27.30;85.20;;;;;;5044793;28;20046;-49
2021/12/21 13:32:23;;;;;;;9.10;4.22;;;27.30;85.20;;;;;;5066985;28;20265;-46
2021/12/21 13:34:55;;;;;;;7.85;4.47;;;27.40;85.20;;;;;;5082817;28;20051;-49
2021/12/21 13:37:22;;;;;;;10.18;4.78;;;27.40;85.20;;;;;;5082976;28;20044;-41
2021/12/21 13:39:53;;;;;;;11.68;4.68;;;27.40;85.20;;;;;;5078138;28;20040;-53
2021/12/21 13:42:23;;;;;;;9.70;4.60;;;27.40;85.30;;;;;;5042863;28;20017;-48
2021/12/21 13:44:55;;;;;;;10.07;4.85;;;27.40;86.00;;;;;;5042785;28;20096;-49
2021/12/21 13:47:36;;;;;;;;;;;27.50;85.50;;;;;;5043090;28;20079;-50
2021/12/21 13:50:13;;;;;;;12.60;5.95;;;27.50;85.50;;;;;;5042801;28;19908;-48
2021/12/21 13:52:58;;;;;;;14.43;6.40;;;27.50;85.60;;;;;;5042676;28;20021;-47
2021/12/21 13:55:32;;;;;;;9.15;5.13;;;27.50;85.50;;;;;;5042783;28;20107;-48
2021/12/21 13:58:05;;;;;;;8.60;5.15;;;27.50;85.60;;;;;;5042439;28;20039;-44
2021/12/21 14:00:37;;;;;;;11.25;5.70;;;27.50;85.50;;;;;;5052415;28;20021;-46
2021/12/21 14:03:15;;;;;;;;;;;27.60;85.50;;;;;;5049742;28;20029;-50
2021/12/21 14:05:44;;;;;;;8.50;5.25;;;27.50;85.40;;;;;;5044697;28;19916;-45